Time;durP1;ratioP1;P1;durP2;ratioP2;P2;SDS_P1;SDS_P2;PMS_P1;PMS_P2;Temp;Humidity;BMP_temperature;BMP_pressure;BME280_temperature;BME280_humidity;BME280_pressure;Samples;Min_cycle;Max_cycle;Signal;HPM_P1;HPM_P2
2022/10/28 16:08:45;;;;;;;22.30;12.63;;;19.60;99.90;;;;;;5637699;23;20023;-92
2022/10/28 16:11:28;;;;;;;22.83;12.70;;;19.50;99.90;;;;;;4902390;29;20048;-92
2022/10/28 16:17:34;;;;;;;22.92;12.63;;;19.30;99.90;;;;;;4828956;29;20093;-93
2022/10/28 17:30:24;;;;;;;41.25;16.23;;;18.50;99.90;;;;;;4937974;29;20048;-92
2022/10/28 17:36:07;;;;;;;35.25;16.42;;;18.50;99.90;;;;;;5224706;23;20059;-92
2022/10/28 17:41:24;;;;;;;33.75;16.70;;;18.50;99.90;;;;;;4943219;23;20063;-91
2022/10/28 17:49:35;;;;;;;36.38;17.42;;;18.40;99.90;;;;;;4860045;29;20084;-93
2022/10/28 17:52:05;;;;;;;42.72;17.58;;;18.40;99.90;;;;;;4865953;29;20108;-93
2022/10/28 17:55:08;;;;;;;;;;;;;;;;;;;;;
2022/10/28 18:13:51;;;;;;;53.08;19.05;;;18.20;99.90;;;;;;5665592;23;20058;-92
2022/10/28 18:22:49;;;;;;;42.10;19.02;;;18.20;99.90;;;;;;4958223;29;20054;-92
2022/10/28 18:25:20;;;;;;;38.22;19.08;;;18.20;99.90;;;;;;5178850;23;20060;-92
2022/10/28 18:28:13;;;;;;;35.60;19.23;;;18.20;99.90;;;;;;4917951;29;20029;-93
2022/10/28 18:30:40;;;;;;;41.38;18.90;;;18.20;99.90;;;;;;5391952;23;20106;-93
2022/10/28 19:11:29;;;;;;;44.47;21.75;;;18.10;99.90;;;;;;5836734;23;23451;-93
2022/10/28 19:14:12;;;;;;;;;;;;;;;;;;;;;
2022/10/28 19:16:46;;;;;;;47.33;19.95;;;18.10;99.90;;;;;;4937048;29;20118;-93
2022/10/28 19:19:30;;;;;;;37.55;20.27;;;18.10;99.90;;;;;;4929027;29;20035;-94
2022/10/28 19:22:43;;;;;;;48.22;20.35;;;18.10;99.90;;;;;;4986625;23;20063;-93
2022/10/28 19:37:21;;;;;;;43.60;22.10;;;18.10;99.90;;;;;;5157591;23;20052;-93
2022/10/28 19:40:39;;;;;;;50.55;22.52;;;18.10;99.90;;;;;;5507618;23;20746;-94
2022/10/28 19:52:28;;;;;;;49.63;21.38;;;18.10;99.90;;;;;;5027889;23;20056;-92
2022/10/28 19:54:54;;;;;;;39.17;21.73;;;18.10;99.90;;;;;;4889759;29;20183;-93
2022/10/28 19:57:21;;;;;;;51.53;22.88;;;18.10;99.90;;;;;;4908689;24;20569;-93
2022/10/28 19:59:47;;;;;;;54.88;21.83;;;18.10;99.90;;;;;;4888839;29;20048;-92
2022/10/28 20:02:24;;;;;;;43.95;19.70;;;18.10;99.90;;;;;;4873424;29;20032;-92
2022/10/28 20:04:54;;;;;;;40.95;20.75;;;18.00;99.90;;;;;;4902679;29;20065;-92
2022/10/28 20:07:22;;;;;;;39.38;19.80;;;18.00;99.90;;;;;;4905703;29;20028;-92
2022/10/28 20:09:49;;;;;;;40.78;20.85;;;18.00;99.90;;;;;;4874756;29;20036;-92
2022/10/28 20:12:29;;;;;;;44.80;19.90;;;18.00;99.90;;;;;;4874351;29;20045;-93
2022/10/28 20:21:15;;;;;;;46.95;21.42;;;18.00;99.90;;;;;;5067887;23;20095;-93
2022/10/28 20:23:48;;;;;;;39.22;19.23;;;17.90;99.90;;;;;;4915821;29;20031;-94
2022/10/28 20:26:27;;;;;;;45.08;21.42;;;17.90;99.90;;;;;;4910101;29;20110;-93
2022/10/28 20:28:54;;;;;;;46.53;20.90;;;17.90;99.90;;;;;;4907970;29;20095;-92
2022/10/28 20:31:24;;;;;;;40.92;20.00;;;17.90;99.90;;;;;;4907296;29;20371;-94
2022/10/28 20:33:56;;;;;;;39.10;19.13;;;17.90;99.90;;;;;;4907839;29;20039;-95
2022/10/28 20:36:43;;;;;;;43.97;21.20;;;17.90;99.90;;;;;;4909678;29;20032;-93
2022/10/28 20:39:19;;;;;;;35.50;20.20;;;17.90;99.90;;;;;;4907752;29;20047;-92
2022/10/28 20:41:48;;;;;;;41.42;19.75;;;17.90;99.90;;;;;;4907585;29;20107;-93
2022/10/28 20:44:15;;;;;;;46.83;20.27;;;17.80;99.90;;;;;;4907586;29;20083;-92
2022/10/28 20:46:46;;;;;;;48.90;20.95;;;17.80;99.90;;;;;;4908225;29;20355;-94
2022/10/28 20:49:20;;;;;;;46.15;20.63;;;17.80;99.90;;;;;;4908440;29;20039;-92
2022/10/28 20:51:48;;;;;;;48.55;20.73;;;17.80;99.90;;;;;;4902744;29;20032;-93
2022/10/28 20:54:15;;;;;;;47.05;21.23;;;17.80;99.90;;;;;;4907783;29;20032;-92
